sensor_id;sensor_type;location;lat;lon;timestamp;temperature;humidity
254;DHT22;590;48.772;8.846;2023-06-10T00:00:04;15.70;61.90
254;DHT22;590;48.772;8.846;2023-06-10T00:02:34;15.70;62.70
254;DHT22;590;48.772;8.846;2023-06-10T00:05:02;15.70;61.90
254;DHT22;590;48.772;8.846;2023-06-10T00:07:31;15.60;61.50
254;DHT22;590;48.772;8.846;2023-06-10T00:10:00;15.60;63.60
254;DHT22;590;48.772;8.846;2023-06-10T00:12:31;15.60;64.50
254;DHT22;590;48.772;8.846;2023-06-10T00:15:04;15.60;63.70
254;DHT22;590;48.772;8.846;2023-06-10T00:17:33;15.60;62.90
254;DHT22;590;48.772;8.846;2023-06-10T00:20:01;15.50;63.10
254;DHT22;590;48.772;8.846;2023-06-10T00:22:31;15.40;63.20
254;DHT22;590;48.772;8.846;2023-06-10T00:25:01;15.40;64.80
254;DHT22;590;48.772;8.846;2023-06-10T00:27:30;15.40;65.70
254;DHT22;590;48.772;8.846;2023-06-10T00:30:02;15.40;65.00
254;DHT22;590;48.772;8.846;2023-06-10T00:32:34;15.40;65.20
254;DHT22;590;48.772;8.846;2023-06-10T00:35:02;15.40;66.10
254;DHT22;590;48.772;8.846;2023-06-10T00:37:31;15.20;64.70
254;DHT22;590;48.772;8.846;2023-06-10T00:40:00;15.10;63.90
254;DHT22;590;48.772;8.846;2023-06-10T00:42:28;15.20;65.00
254;DHT22;590;48.772;8.846;2023-06-10T00:44:57;15.10;64.50
254;DHT22;590;48.772;8.846;2023-06-10T00:47:25;15.10;65.20
254;DHT22;590;48.772;8.846;2023-06-10T00:49:54;15.10;65.20
254;DHT22;590;48.772;8.846;2023-06-10T00:52:25;15.10;65.10
254;DHT22;590;48.772;8.846;2023-06-10T00:54:54;15.00;65.80
254;DHT22;590;48.772;8.846;2023-06-10T00:57:24;15.00;66.00
254;DHT22;590;48.772;8.846;2023-06-10T00:59:52;14.90;65.60
254;DHT22;590;48.772;8.846;2023-06-10T01:02:20;15.00;66.40
254;DHT22;590;48.772;8.846;2023-06-10T01:04:48;14.90;65.80
254;DHT22;590;48.772;8.846;2023-06-10T01:07:22;14.90;65.90
254;DHT22;590;48.772;8.846;2023-06-10T01:09:55;14.80;66.00
254;DHT22;590;48.772;8.846;2023-06-10T01:12:34;14.80;66.60
254;DHT22;590;48.772;8.846;2023-06-10T01:15:06;14.80;66.90
254;DHT22;590;48.772;8.846;2023-06-10T01:17:37;14.90;66.50
254;DHT22;590;48.772;8.846;2023-06-10T01:20:19;14.80;66.00
254;DHT22;590;48.772;8.846;2023-06-10T01:22:48;14.70;66.30
254;DHT22;590;48.772;8.846;2023-06-10T01:25:17;14.70;66.60
254;DHT22;590;48.772;8.846;2023-06-10T01:27:47;14.60;68.50
254;DHT22;590;48.772;8.846;2023-06-10T01:30:19;14.60;70.00
254;DHT22;590;48.772;8.846;2023-06-10T01:32:51;14.60;70.40
254;DHT22;590;48.772;8.846;2023-06-10T01:35:22;14.60;70.10
254;DHT22;590;48.772;8.846;2023-06-10T01:37:54;14.60;70.00
254;DHT22;590;48.772;8.846;2023-06-10T01:40:25;14.50;70.50
254;DHT22;590;48.772;8.846;2023-06-10T01:42:53;14.60;71.00
254;DHT22;590;48.772;8.846;2023-06-10T01:45:21;14.50;69.80
254;DHT22;590;48.772;8.846;2023-06-10T01:47:49;14.50;69.60
254;DHT22;590;48.772;8.846;2023-06-10T01:50:17;14.40;69.70
254;DHT22;590;48.772;8.846;2023-06-10T01:52:45;14.40;70.10
254;DHT22;590;48.772;8.846;2023-06-10T01:55:15;14.40;70.10
254;DHT22;590;48.772;8.846;2023-06-10T01:57:43;14.40;70.40
254;DHT22;590;48.772;8.846;2023-06-10T02:00:12;14.30;70.40
254;DHT22;590;48.772;8.846;2023-06-10T02:02:40;14.20;70.40
254;DHT22;590;48.772;8.846;2023-06-10T02:05:08;14.30;73.10
254;DHT22;590;48.772;8.846;2023-06-10T02:07:37;14.20;72.30
254;DHT22;590;48.772;8.846;2023-06-10T02:10:07;14.20;73.20
254;DHT22;590;48.772;8.846;2023-06-10T02:12:36;14.20;73.10
254;DHT22;590;48.772;8.846;2023-06-10T02:15:04;14.10;72.90
254;DHT22;590;48.772;8.846;2023-06-10T02:17:33;14.20;73.60
254;DHT22;590;48.772;8.846;2023-06-10T02:20:01;14.10;72.20
254;DHT22;590;48.772;8.846;2023-06-10T02:22:30;14.10;73.00
254;DHT22;590;48.772;8.846;2023-06-10T02:24:59;14.10;73.10
254;DHT22;590;48.772;8.846;2023-06-10T02:27:27;14.00;72.40
254;DHT22;590;48.772;8.846;2023-06-10T02:29:56;14.00;73.20
254;DHT22;590;48.772;8.846;2023-06-10T02:32:24;14.00;72.90
254;DHT22;590;48.772;8.846;2023-06-10T02:34:53;14.00;73.30
254;DHT22;590;48.772;8.846;2023-06-10T02:37:21;13.90;72.90
254;DHT22;590;48.772;8.846;2023-06-10T02:39:49;13.90;72.70
254;DHT22;590;48.772;8.846;2023-06-10T02:42:17;13.90;72.90
254;DHT22;590;48.772;8.846;2023-06-10T02:44:45;13.80;73.30
254;DHT22;590;48.772;8.846;2023-06-10T02:47:14;13.80;73.50
254;DHT22;590;48.772;8.846;2023-06-10T02:49:42;13.70;72.90
254;DHT22;590;48.772;8.846;2023-06-10T02:52:10;13.70;74.60
254;DHT22;590;48.772;8.846;2023-06-10T02:54:39;13.70;75.40
254;DHT22;590;48.772;8.846;2023-06-10T02:57:07;13.70;76.00
254;DHT22;590;48.772;8.846;2023-06-10T02:59:37;13.70;75.30
254;DHT22;590;48.772;8.846;2023-06-10T03:02:05;13.60;74.90
254;DHT22;590;48.772;8.846;2023-06-10T03:04:34;13.50;74.90
254;DHT22;590;48.772;8.846;2023-06-10T03:07:04;13.60;75.70
254;DHT22;590;48.772;8.846;2023-06-10T03:09:34;13.60;76.00
254;DHT22;590;48.772;8.846;2023-06-10T03:12:02;13.60;75.40
254;DHT22;590;48.772;8.846;2023-06-10T03:14:30;13.50;75.30
254;DHT22;590;48.772;8.846;2023-06-10T03:16:58;13.50;75.60
254;DHT22;590;48.772;8.846;2023-06-10T03:19:27;13.50;77.60
254;DHT22;590;48.772;8.846;2023-06-10T03:21:59;13.60;77.60
254;DHT22;590;48.772;8.846;2023-06-10T03:24:34;13.70;76.60
254;DHT22;590;48.772;8.846;2023-06-10T03:27:03;13.70;75.90
254;DHT22;590;48.772;8.846;2023-06-10T03:29:32;13.70;75.40
254;DHT22;590;48.772;8.846;2023-06-10T03:32:00;13.60;75.00
254;DHT22;590;48.772;8.846;2023-06-10T03:34:28;13.60;75.90
254;DHT22;590;48.772;8.846;2023-06-10T03:36:58;13.60;75.20
254;DHT22;590;48.772;8.846;2023-06-10T03:39:26;13.60;73.70
254;DHT22;590;48.772;8.846;2023-06-10T03:41:55;13.50;72.70
254;DHT22;590;48.772;8.846;2023-06-10T03:44:24;13.40;73.00
254;DHT22;590;48.772;8.846;2023-06-10T03:46:54;13.40;73.20
254;DHT22;590;48.772;8.846;2023-06-10T03:49:22;13.40;73.80
254;DHT22;590;48.772;8.846;2023-06-10T03:51:52;13.50;74.30
254;DHT22;590;48.772;8.846;2023-06-10T03:54:22;13.50;74.20
254;DHT22;590;48.772;8.846;2023-06-10T03:56:50;13.50;74.80
254;DHT22;590;48.772;8.846;2023-06-10T03:59:18;13.50;74.60
254;DHT22;590;48.772;8.846;2023-06-10T04:01:46;13.60;75.00
254;DHT22;590;48.772;8.846;2023-06-10T04:04:14;13.80;74.80
254;DHT22;590;48.772;8.846;2023-06-10T04:06:43;13.90;74.50
254;DHT22;590;48.772;8.846;2023-06-10T04:09:12;14.00;73.80
254;DHT22;590;48.772;8.846;2023-06-10T04:11:41;14.00;72.90
254;DHT22;590;48.772;8.846;2023-06-10T04:14:09;14.20;72.40
254;DHT22;590;48.772;8.846;2023-06-10T04:16:37;14.30;72.00
254;DHT22;590;48.772;8.846;2023-06-10T04:19:06;14.80;70.30
254;DHT22;590;48.772;8.846;2023-06-10T04:21:34;15.60;66.80
254;DHT22;590;48.772;8.846;2023-06-10T04:24:03;16.70;61.40
254;DHT22;590;48.772;8.846;2023-06-10T04:26:31;17.80;51.80
254;DHT22;590;48.772;8.846;2023-06-10T04:29:01;18.40;42.00
254;DHT22;590;48.772;8.846;2023-06-10T04:31:29;18.80;40.60
254;DHT22;590;48.772;8.846;2023-06-10T04:33:59;19.70;37.80
254;DHT22;590;48.772;8.846;2023-06-10T04:36:27;20.80;28.70
254;DHT22;590;48.772;8.846;2023-06-10T04:38:56;22.20;24.80
254;DHT22;590;48.772;8.846;2023-06-10T04:41:24;23.60;18.00
254;DHT22;590;48.772;8.846;2023-06-10T04:43:53;24.80;13.40
254;DHT22;590;48.772;8.846;2023-06-10T04:46:23;25.80;9.60
254;DHT22;590;48.772;8.846;2023-06-10T04:48:51;26.80;5.70
254;DHT22;590;48.772;8.846;2023-06-10T04:51:21;27.70;4.30
254;DHT22;590;48.772;8.846;2023-06-10T04:53:49;28.10;2.40
254;DHT22;590;48.772;8.846;2023-06-10T04:56:17;28.60;1.90
254;DHT22;590;48.772;8.846;2023-06-10T04:58:45;29.30;1.00
254;DHT22;590;48.772;8.846;2023-06-10T05:01:13;29.90;1.00
254;DHT22;590;48.772;8.846;2023-06-10T05:03:42;30.10;1.00
254;DHT22;590;48.772;8.846;2023-06-10T05:06:10;30.60;1.00
254;DHT22;590;48.772;8.846;2023-06-10T05:08:38;30.80;1.00
254;DHT22;590;48.772;8.846;2023-06-10T05:11:06;30.80;1.00
254;DHT22;590;48.772;8.846;2023-06-10T05:13:35;31.10;1.00
254;DHT22;590;48.772;8.846;2023-06-10T05:16:03;30.80;1.00
254;DHT22;590;48.772;8.846;2023-06-10T05:18:31;30.50;1.00
254;DHT22;590;48.772;8.846;2023-06-10T05:21:01;30.10;1.00
254;DHT22;590;48.772;8.846;2023-06-10T05:23:29;29.60;1.00
254;DHT22;590;48.772;8.846;2023-06-10T05:25:57;28.70;1.00
254;DHT22;590;48.772;8.846;2023-06-10T05:28:26;28.10;1.30
254;DHT22;590;48.772;8.846;2023-06-10T05:30:54;27.50;1.80
254;DHT22;590;48.772;8.846;2023-06-10T05:33:22;26.90;3.60
254;DHT22;590;48.772;8.846;2023-06-10T05:35:50;26.50;4.20
254;DHT22;590;48.772;8.846;2023-06-10T05:38:19;26.20;5.80
254;DHT22;590;48.772;8.846;2023-06-10T05:40:47;25.80;5.60
254;DHT22;590;48.772;8.846;2023-06-10T05:43:15;25.70;6.30
254;DHT22;590;48.772;8.846;2023-06-10T05:45:44;25.40;7.80
254;DHT22;590;48.772;8.846;2023-06-10T05:48:12;25.20;7.70
254;DHT22;590;48.772;8.846;2023-06-10T05:50:40;25.10;9.40
254;DHT22;590;48.772;8.846;2023-06-10T05:53:09;25.20;9.40
254;DHT22;590;48.772;8.846;2023-06-10T05:55:43;25.40;8.80
254;DHT22;590;48.772;8.846;2023-06-10T05:58:12;25.50;9.30
254;DHT22;590;48.772;8.846;2023-06-10T06:00:40;25.70;9.30
254;DHT22;590;48.772;8.846;2023-06-10T06:03:09;25.70;9.80
254;DHT22;590;48.772;8.846;2023-06-10T06:05:37;25.80;8.70
254;DHT22;590;48.772;8.846;2023-06-10T06:08:05;26.00;8.80
254;DHT22;590;48.772;8.846;2023-06-10T06:10:34;26.20;7.60
254;DHT22;590;48.772;8.846;2023-06-10T06:13:03;26.50;6.60
254;DHT22;590;48.772;8.846;2023-06-10T06:15:31;26.90;5.60
254;DHT22;590;48.772;8.846;2023-06-10T06:17:59;27.10;5.80
254;DHT22;590;48.772;8.846;2023-06-10T06:20:27;27.30;6.10
254;DHT22;590;48.772;8.846;2023-06-10T06:22:55;27.60;5.10
254;DHT22;590;48.772;8.846;2023-06-10T06:25:23;28.10;4.70
254;DHT22;590;48.772;8.846;2023-06-10T06:27:51;28.40;2.90
254;DHT22;590;48.772;8.846;2023-06-10T06:30:21;28.60;3.20
254;DHT22;590;48.772;8.846;2023-06-10T06:32:49;28.90;2.50
254;DHT22;590;48.772;8.846;2023-06-10T06:35:18;29.20;2.40
254;DHT22;590;48.772;8.846;2023-06-10T06:37:46;29.70;2.00
254;DHT22;590;48.772;8.846;2023-06-10T06:40:14;29.90;1.00
254;DHT22;590;48.772;8.846;2023-06-10T06:42:42;30.20;1.10
254;DHT22;590;48.772;8.846;2023-06-10T06:45:10;30.50;1.00
254;DHT22;590;48.772;8.846;2023-06-10T06:47:40;30.80;1.00
254;DHT22;590;48.772;8.846;2023-06-10T06:50:09;30.70;1.00
254;DHT22;590;48.772;8.846;2023-06-10T06:52:37;30.60;1.00
254;DHT22;590;48.772;8.846;2023-06-10T06:55:05;30.80;1.00
254;DHT22;590;48.772;8.846;2023-06-10T06:57:34;31.10;1.00
254;DHT22;590;48.772;8.846;2023-06-10T07:00:04;31.30;1.00
254;DHT22;590;48.772;8.846;2023-06-10T07:02:32;31.30;1.00
254;DHT22;590;48.772;8.846;2023-06-10T07:05:02;31.30;1.00
254;DHT22;590;48.772;8.846;2023-06-10T07:07:30;31.60;1.00
254;DHT22;590;48.772;8.846;2023-06-10T07:09:58;31.90;1.00
254;DHT22;590;48.772;8.846;2023-06-10T07:12:26;32.20;1.00
254;DHT22;590;48.772;8.846;2023-06-10T07:14:55;32.60;1.00
254;DHT22;590;48.772;8.846;2023-06-10T07:17:23;33.10;1.00
254;DHT22;590;48.772;8.846;2023-06-10T07:19:51;32.90;1.00
254;DHT22;590;48.772;8.846;2023-06-10T07:22:20;33.10;1.00
254;DHT22;590;48.772;8.846;2023-06-10T07:24:48;32.70;1.00
254;DHT22;590;48.772;8.846;2023-06-10T07:27:18;32.50;1.00
254;DHT22;590;48.772;8.846;2023-06-10T07:29:46;31.90;1.00
254;DHT22;590;48.772;8.846;2023-06-10T07:32:14;31.50;1.00
254;DHT22;590;48.772;8.846;2023-06-10T07:34:45;30.80;1.00
254;DHT22;590;48.772;8.846;2023-06-10T07:37:13;30.90;1.00
254;DHT22;590;48.772;8.846;2023-06-10T07:39:42;31.20;1.00
254;DHT22;590;48.772;8.846;2023-06-10T07:42:11;31.40;1.00
254;DHT22;590;48.772;8.846;2023-06-10T07:44:51;30.70;1.00
254;DHT22;590;48.772;8.846;2023-06-10T07:47:19;30.90;1.00
254;DHT22;590;48.772;8.846;2023-06-10T07:49:47;31.10;1.00
254;DHT22;590;48.772;8.846;2023-06-10T07:52:15;31.60;1.00
254;DHT22;590;48.772;8.846;2023-06-10T07:54:44;31.50;1.00
254;DHT22;590;48.772;8.846;2023-06-10T07:57:12;31.40;1.00
254;DHT22;590;48.772;8.846;2023-06-10T07:59:40;31.20;1.00
254;DHT22;590;48.772;8.846;2023-06-10T08:02:11;31.30;1.00
254;DHT22;590;48.772;8.846;2023-06-10T08:04:39;31.80;1.00
254;DHT22;590;48.772;8.846;2023-06-10T08:07:07;31.90;1.00
254;DHT22;590;48.772;8.846;2023-06-10T08:09:35;31.70;1.00
254;DHT22;590;48.772;8.846;2023-06-10T08:12:06;32.00;1.00
254;DHT22;590;48.772;8.846;2023-06-10T08:14:34;31.50;1.00
254;DHT22;590;48.772;8.846;2023-06-10T08:17:04;31.30;1.00
254;DHT22;590;48.772;8.846;2023-06-10T08:19:32;31.30;1.00
254;DHT22;590;48.772;8.846;2023-06-10T08:22:00;31.30;1.00
254;DHT22;590;48.772;8.846;2023-06-10T08:24:28;31.70;1.00
254;DHT22;590;48.772;8.846;2023-06-10T08:26:56;31.80;1.00
254;DHT22;590;48.772;8.846;2023-06-10T08:29:26;31.90;1.00
254;DHT22;590;48.772;8.846;2023-06-10T08:31:54;31.90;1.00
254;DHT22;590;48.772;8.846;2023-06-10T08:34:22;32.40;1.00
254;DHT22;590;48.772;8.846;2023-06-10T08:36:50;32.50;1.00
254;DHT22;590;48.772;8.846;2023-06-10T08:39:20;32.20;1.00
254;DHT22;590;48.772;8.846;2023-06-10T08:41:51;32.20;1.00
254;DHT22;590;48.772;8.846;2023-06-10T08:44:30;32.00;1.00
254;DHT22;590;48.772;8.846;2023-06-10T08:47:00;31.60;1.00
254;DHT22;590;48.772;8.846;2023-06-10T08:49:30;31.30;1.00
254;DHT22;590;48.772;8.846;2023-06-10T08:52:02;30.70;1.00
254;DHT22;590;48.772;8.846;2023-06-10T08:54:33;30.70;1.00
254;DHT22;590;48.772;8.846;2023-06-10T08:57:04;30.70;1.00
254;DHT22;590;48.772;8.846;2023-06-10T08:59:35;30.60;1.00
254;DHT22;590;48.772;8.846;2023-06-10T09:02:04;30.80;1.00
254;DHT22;590;48.772;8.846;2023-06-10T09:04:32;30.90;1.00
254;DHT22;590;48.772;8.846;2023-06-10T09:07:02;31.20;1.00
254;DHT22;590;48.772;8.846;2023-06-10T09:09:32;31.30;1.00
254;DHT22;590;48.772;8.846;2023-06-10T09:12:03;31.20;1.00
254;DHT22;590;48.772;8.846;2023-06-10T09:14:31;30.80;1.00
254;DHT22;590;48.772;8.846;2023-06-10T09:17:01;30.50;1.00
254;DHT22;590;48.772;8.846;2023-06-10T09:19:29;30.50;1.00
254;DHT22;590;48.772;8.846;2023-06-10T09:21:58;30.50;1.00
254;DHT22;590;48.772;8.846;2023-06-10T09:24:28;30.40;1.00
254;DHT22;590;48.772;8.846;2023-06-10T09:27:02;30.40;1.00
254;DHT22;590;48.772;8.846;2023-06-10T09:29:30;30.40;1.00
254;DHT22;590;48.772;8.846;2023-06-10T09:32:01;30.30;1.00
254;DHT22;590;48.772;8.846;2023-06-10T09:34:29;29.90;1.00
254;DHT22;590;48.772;8.846;2023-06-10T09:36:57;29.80;1.00
254;DHT22;590;48.772;8.846;2023-06-10T09:39:25;30.10;1.10
254;DHT22;590;48.772;8.846;2023-06-10T09:41:53;30.40;1.00
254;DHT22;590;48.772;8.846;2023-06-10T09:44:21;30.50;1.00
254;DHT22;590;48.772;8.846;2023-06-10T09:46:51;30.50;1.50
254;DHT22;590;48.772;8.846;2023-06-10T09:49:22;30.90;1.00
254;DHT22;590;48.772;8.846;2023-06-10T09:51:51;30.40;1.00
254;DHT22;590;48.772;8.846;2023-06-10T09:54:20;30.50;1.20
254;DHT22;590;48.772;8.846;2023-06-10T09:56:49;30.60;1.00
254;DHT22;590;48.772;8.846;2023-06-10T09:59:28;30.30;1.00
254;DHT22;590;48.772;8.846;2023-06-10T10:01:56;30.10;1.00
254;DHT22;590;48.772;8.846;2023-06-10T10:04:26;29.90;1.60
254;DHT22;590;48.772;8.846;2023-06-10T10:06:55;29.50;2.00
254;DHT22;590;48.772;8.846;2023-06-10T10:09:26;29.50;1.60
254;DHT22;590;48.772;8.846;2023-06-10T10:11:55;29.60;2.00
254;DHT22;590;48.772;8.846;2023-06-10T10:14:24;29.60;1.80
254;DHT22;590;48.772;8.846;2023-06-10T10:16:53;29.50;1.10
254;DHT22;590;48.772;8.846;2023-06-10T10:19:28;29.50;1.00
254;DHT22;590;48.772;8.846;2023-06-10T10:22:01;29.50;1.00
254;DHT22;590;48.772;8.846;2023-06-10T10:24:33;29.60;2.40
254;DHT22;590;48.772;8.846;2023-06-10T10:27:05;29.60;1.10
254;DHT22;590;48.772;8.846;2023-06-10T10:29:38;29.70;1.00
254;DHT22;590;48.772;8.846;2023-06-10T10:32:07;29.60;1.10
254;DHT22;590;48.772;8.846;2023-06-10T10:34:45;29.30;1.90
254;DHT22;590;48.772;8.846;2023-06-10T10:37:20;29.30;1.20
254;DHT22;590;48.772;8.846;2023-06-10T10:39:49;29.60;2.60
254;DHT22;590;48.772;8.846;2023-06-10T10:42:18;29.80;1.60
254;DHT22;590;48.772;8.846;2023-06-10T10:44:51;29.80;1.00
254;DHT22;590;48.772;8.846;2023-06-10T10:47:21;29.70;1.00
254;DHT22;590;48.772;8.846;2023-06-10T10:49:52;29.50;1.70
254;DHT22;590;48.772;8.846;2023-06-10T10:52:20;29.10;1.00
254;DHT22;590;48.772;8.846;2023-06-10T10:54:48;29.00;1.90
254;DHT22;590;48.772;8.846;2023-06-10T10:57:18;29.10;2.50
254;DHT22;590;48.772;8.846;2023-06-10T10:59:52;29.30;1.20
254;DHT22;590;48.772;8.846;2023-06-10T11:02:34;29.40;1.40
254;DHT22;590;48.772;8.846;2023-06-10T11:05:08;29.40;1.50
254;DHT22;590;48.772;8.846;2023-06-10T11:07:37;29.20;1.90
254;DHT22;590;48.772;8.846;2023-06-10T11:10:07;28.90;2.30
254;DHT22;590;48.772;8.846;2023-06-10T11:12:50;28.80;1.90
254;DHT22;590;48.772;8.846;2023-06-10T11:15:19;28.80;2.90
254;DHT22;590;48.772;8.846;2023-06-10T11:18:19;28.80;4.00
254;DHT22;590;48.772;8.846;2023-06-10T11:20:57;29.00;2.30
254;DHT22;590;48.772;8.846;2023-06-10T11:23:38;29.00;1.90
254;DHT22;590;48.772;8.846;2023-06-10T11:29:04;29.30;2.60
254;DHT22;590;48.772;8.846;2023-06-10T11:31:33;29.50;1.00
254;DHT22;590;48.772;8.846;2023-06-10T11:34:03;29.70;1.80
254;DHT22;590;48.772;8.846;2023-06-10T11:36:34;29.80;1.00
254;DHT22;590;48.772;8.846;2023-06-10T11:39:04;29.90;1.10
254;DHT22;590;48.772;8.846;2023-06-10T11:41:33;29.80;1.40
254;DHT22;590;48.772;8.846;2023-06-10T11:44:03;29.70;1.00
254;DHT22;590;48.772;8.846;2023-06-10T11:46:32;29.60;1.00
254;DHT22;590;48.772;8.846;2023-06-10T11:49:01;29.30;1.50
254;DHT22;590;48.772;8.846;2023-06-10T11:51:35;29.00;1.00
254;DHT22;590;48.772;8.846;2023-06-10T11:54:04;28.90;2.50
254;DHT22;590;48.772;8.846;2023-06-10T11:56:32;28.80;2.20
254;DHT22;590;48.772;8.846;2023-06-10T11:59:01;28.70;3.10
254;DHT22;590;48.772;8.846;2023-06-10T12:01:32;28.90;2.40
254;DHT22;590;48.772;8.846;2023-06-10T12:04:02;29.10;1.40
254;DHT22;590;48.772;8.846;2023-06-10T12:06:42;29.30;1.00
254;DHT22;590;48.772;8.846;2023-06-10T12:09:15;29.50;1.10
254;DHT22;590;48.772;8.846;2023-06-10T12:11:55;29.50;1.00
254;DHT22;590;48.772;8.846;2023-06-10T12:14:53;29.60;1.00
254;DHT22;590;48.772;8.846;2023-06-10T12:17:24;29.40;1.00
254;DHT22;590;48.772;8.846;2023-06-10T12:20:05;29.30;1.00
254;DHT22;590;48.772;8.846;2023-06-10T12:22:39;29.00;1.00
254;DHT22;590;48.772;8.846;2023-06-10T12:25:09;29.10;1.00
254;DHT22;590;48.772;8.846;2023-06-10T12:27:39;29.10;1.00
254;DHT22;590;48.772;8.846;2023-06-10T12:30:08;29.00;1.20
254;DHT22;590;48.772;8.846;2023-06-10T12:32:41;29.00;1.00
254;DHT22;590;48.772;8.846;2023-06-10T12:35:10;28.80;1.00
254;DHT22;590;48.772;8.846;2023-06-10T12:37:41;28.50;1.00
254;DHT22;590;48.772;8.846;2023-06-10T12:40:10;28.50;1.00
254;DHT22;590;48.772;8.846;2023-06-10T12:42:39;28.40;1.00
254;DHT22;590;48.772;8.846;2023-06-10T12:45:09;28.20;1.00
254;DHT22;590;48.772;8.846;2023-06-10T12:47:39;28.40;1.50
254;DHT22;590;48.772;8.846;2023-06-10T12:50:09;28.80;1.00
254;DHT22;590;48.772;8.846;2023-06-10T12:52:40;28.90;2.00
254;DHT22;590;48.772;8.846;2023-06-10T12:55:09;28.80;1.40
254;DHT22;590;48.772;8.846;2023-06-10T12:57:47;28.70;1.90
254;DHT22;590;48.772;8.846;2023-06-10T13:00:17;28.50;1.60
254;DHT22;590;48.772;8.846;2023-06-10T13:02:47;28.30;1.40
254;DHT22;590;48.772;8.846;2023-06-10T13:05:16;28.40;2.10
254;DHT22;590;48.772;8.846;2023-06-10T13:07:46;28.50;2.70
254;DHT22;590;48.772;8.846;2023-06-10T13:10:15;28.50;3.10
254;DHT22;590;48.772;8.846;2023-06-10T13:12:44;28.40;1.00
254;DHT22;590;48.772;8.846;2023-06-10T13:15:15;28.30;1.00
254;DHT22;590;48.772;8.846;2023-06-10T13:17:43;28.30;2.40
254;DHT22;590;48.772;8.846;2023-06-10T13:20:12;28.20;2.30
254;DHT22;590;48.772;8.846;2023-06-10T13:22:40;28.00;1.60
254;DHT22;590;48.772;8.846;2023-06-10T13:25:10;27.90;1.40
254;DHT22;590;48.772;8.846;2023-06-10T13:27:39;27.80;1.20
254;DHT22;590;48.772;8.846;2023-06-10T13:30:10;28.00;2.50
254;DHT22;590;48.772;8.846;2023-06-10T13:32:38;28.30;1.00
254;DHT22;590;48.772;8.846;2023-06-10T13:35:07;28.50;1.60
254;DHT22;590;48.772;8.846;2023-06-10T13:37:36;28.70;1.00
254;DHT22;590;48.772;8.846;2023-06-10T13:40:05;29.00;1.80
254;DHT22;590;48.772;8.846;2023-06-10T13:42:36;29.20;1.70
254;DHT22;590;48.772;8.846;2023-06-10T13:45:04;29.20;1.00
254;DHT22;590;48.772;8.846;2023-06-10T13:47:33;29.00;1.00
254;DHT22;590;48.772;8.846;2023-06-10T13:50:01;28.70;1.00
254;DHT22;590;48.772;8.846;2023-06-10T13:52:29;28.70;1.00
254;DHT22;590;48.772;8.846;2023-06-10T13:54:57;28.50;1.00
254;DHT22;590;48.772;8.846;2023-06-10T13:57:25;28.40;1.00
254;DHT22;590;48.772;8.846;2023-06-10T13:59:54;28.30;1.40
254;DHT22;590;48.772;8.846;2023-06-10T14:02:23;28.40;1.60
254;DHT22;590;48.772;8.846;2023-06-10T14:04:51;28.40;1.40
254;DHT22;590;48.772;8.846;2023-06-10T14:07:19;28.50;1.30
254;DHT22;590;48.772;8.846;2023-06-10T14:09:47;28.40;1.00
254;DHT22;590;48.772;8.846;2023-06-10T14:12:15;28.40;1.00
254;DHT22;590;48.772;8.846;2023-06-10T14:14:43;28.50;1.00
254;DHT22;590;48.772;8.846;2023-06-10T14:17:12;28.50;1.10
254;DHT22;590;48.772;8.846;2023-06-10T14:19:40;28.70;1.00
254;DHT22;590;48.772;8.846;2023-06-10T14:22:08;28.80;1.00
254;DHT22;590;48.772;8.846;2023-06-10T14:24:36;28.80;1.00
254;DHT22;590;48.772;8.846;2023-06-10T14:27:05;28.80;1.00
254;DHT22;590;48.772;8.846;2023-06-10T14:29:34;28.70;1.00
254;DHT22;590;48.772;8.846;2023-06-10T14:32:02;28.40;1.00
254;DHT22;590;48.772;8.846;2023-06-10T14:34:36;28.20;1.00
254;DHT22;590;48.772;8.846;2023-06-10T14:37:05;28.00;1.00
254;DHT22;590;48.772;8.846;2023-06-10T14:39:34;27.70;1.30
254;DHT22;590;48.772;8.846;2023-06-10T14:42:03;27.70;2.10
254;DHT22;590;48.772;8.846;2023-06-10T14:44:32;27.60;1.20
254;DHT22;590;48.772;8.846;2023-06-10T14:47:00;27.70;1.20
254;DHT22;590;48.772;8.846;2023-06-10T14:49:28;27.80;1.00
254;DHT22;590;48.772;8.846;2023-06-10T14:51:57;27.80;1.00
254;DHT22;590;48.772;8.846;2023-06-10T14:54:25;27.80;1.00
254;DHT22;590;48.772;8.846;2023-06-10T14:56:54;27.80;1.60
254;DHT22;590;48.772;8.846;2023-06-10T14:59:22;27.90;1.40
254;DHT22;590;48.772;8.846;2023-06-10T15:01:50;27.90;1.60
254;DHT22;590;48.772;8.846;2023-06-10T15:04:18;27.80;1.00
254;DHT22;590;48.772;8.846;2023-06-10T15:06:50;27.80;1.00
254;DHT22;590;48.772;8.846;2023-06-10T15:09:19;27.70;1.00
254;DHT22;590;48.772;8.846;2023-06-10T15:11:47;27.70;1.00
254;DHT22;590;48.772;8.846;2023-06-10T15:14:15;27.70;1.00
254;DHT22;590;48.772;8.846;2023-06-10T15:16:43;27.80;1.30
254;DHT22;590;48.772;8.846;2023-06-10T15:19:11;27.90;1.00
254;DHT22;590;48.772;8.846;2023-06-10T15:21:39;27.90;1.00
254;DHT22;590;48.772;8.846;2023-06-10T15:24:08;28.10;1.00
254;DHT22;590;48.772;8.846;2023-06-10T15:26:37;28.10;1.30
254;DHT22;590;48.772;8.846;2023-06-10T15:29:05;28.00;1.00
254;DHT22;590;48.772;8.846;2023-06-10T15:31:34;27.90;1.30
254;DHT22;590;48.772;8.846;2023-06-10T15:34:02;27.70;1.20
254;DHT22;590;48.772;8.846;2023-06-10T15:36:30;27.60;1.10
254;DHT22;590;48.772;8.846;2023-06-10T15:39:01;27.50;1.10
254;DHT22;590;48.772;8.846;2023-06-10T15:41:30;27.50;1.80
254;DHT22;590;48.772;8.846;2023-06-10T15:43:59;27.50;1.40
254;DHT22;590;48.772;8.846;2023-06-10T15:46:28;27.50;1.10
254;DHT22;590;48.772;8.846;2023-06-10T15:48:57;27.40;1.30
254;DHT22;590;48.772;8.846;2023-06-10T15:51:25;27.40;1.30
254;DHT22;590;48.772;8.846;2023-06-10T15:53:53;27.40;1.00
254;DHT22;590;48.772;8.846;2023-06-10T15:56:21;27.40;1.50
254;DHT22;590;48.772;8.846;2023-06-10T15:58:49;27.40;1.30
254;DHT22;590;48.772;8.846;2023-06-10T16:01:19;27.50;1.90
254;DHT22;590;48.772;8.846;2023-06-10T16:03:47;27.40;1.00
254;DHT22;590;48.772;8.846;2023-06-10T16:06:15;27.50;1.70
254;DHT22;590;48.772;8.846;2023-06-10T16:08:43;27.50;3.00
254;DHT22;590;48.772;8.846;2023-06-10T16:11:12;27.50;1.10
254;DHT22;590;48.772;8.846;2023-06-10T16:13:40;27.40;1.40
254;DHT22;590;48.772;8.846;2023-06-10T16:16:08;27.20;1.90
254;DHT22;590;48.772;8.846;2023-06-10T16:18:38;27.10;2.00
254;DHT22;590;48.772;8.846;2023-06-10T16:21:06;27.10;2.10
254;DHT22;590;48.772;8.846;2023-06-10T16:23:34;27.20;2.30
254;DHT22;590;48.772;8.846;2023-06-10T16:26:04;27.30;3.10
254;DHT22;590;48.772;8.846;2023-06-10T16:28:32;27.30;2.10
254;DHT22;590;48.772;8.846;2023-06-10T16:31:00;27.30;3.20
254;DHT22;590;48.772;8.846;2023-06-10T16:33:29;27.30;3.00
254;DHT22;590;48.772;8.846;2023-06-10T16:35:59;27.30;3.30
254;DHT22;590;48.772;8.846;2023-06-10T16:38:27;27.20;3.20
254;DHT22;590;48.772;8.846;2023-06-10T16:40:55;27.20;3.00
254;DHT22;590;48.772;8.846;2023-06-10T16:43:24;27.20;3.10
254;DHT22;590;48.772;8.846;2023-06-10T16:45:53;27.20;2.20
254;DHT22;590;48.772;8.846;2023-06-10T16:48:22;27.10;1.70
254;DHT22;590;48.772;8.846;2023-06-10T16:50:50;27.00;2.40
254;DHT22;590;48.772;8.846;2023-06-10T16:53:19;26.90;2.10
254;DHT22;590;48.772;8.846;2023-06-10T16:55:47;26.90;2.70
254;DHT22;590;48.772;8.846;2023-06-10T16:58:15;26.90;2.20
254;DHT22;590;48.772;8.846;2023-06-10T17:00:44;26.90;1.50
254;DHT22;590;48.772;8.846;2023-06-10T17:03:12;26.90;1.80